createdAt,value
2023-04-13T00:01:49.015Z,8.70
2023-04-13T00:04:34.656Z,8.70
2023-04-13T00:07:22.843Z,8.60
2023-04-13T00:10:12.230Z,8.60
2023-04-13T00:13:01.421Z,8.60
2023-04-13T00:15:47.107Z,8.50
2023-04-13T00:18:32.841Z,8.40
2023-04-13T00:21:19.525Z,8.30
2023-04-13T00:24:05.039Z,8.20
2023-04-13T00:26:50.184Z,8.00
2023-04-13T00:29:36.178Z,8.00
2023-04-13T00:32:24.827Z,7.90
2023-04-13T00:35:18.947Z,8.00
2023-04-13T00:38:07.378Z,7.90
2023-04-13T00:40:55.997Z,7.90
2023-04-13T00:43:44.931Z,7.70
2023-04-13T00:46:31.530Z,7.60
2023-04-13T00:49:18.856Z,7.50
2023-04-13T00:52:04.804Z,7.40
2023-04-13T00:54:51.690Z,7.40
2023-04-13T00:57:40.600Z,7.50
2023-04-13T01:00:27.301Z,7.50
2023-04-13T01:03:13.332Z,7.50
2023-04-13T01:05:59.038Z,7.50
2023-04-13T01:08:53.137Z,7.50
2023-04-13T01:11:46.143Z,7.70
2023-04-13T01:14:45.664Z,7.70
2023-04-13T01:17:35.947Z,7.80
2023-04-13T01:20:23.077Z,7.80
2023-04-13T01:23:21.997Z,7.90
2023-04-13T01:26:08.879Z,7.80
2023-04-13T01:28:54.765Z,7.70
2023-04-13T01:31:40.644Z,7.80
2023-04-13T01:34:26.844Z,7.90
2023-04-13T01:37:13.584Z,7.90
2023-04-13T01:39:59.017Z,7.80
2023-04-13T01:42:45.161Z,7.80
2023-04-13T01:45:53.793Z,7.80
2023-04-13T01:48:58.048Z,7.70
2023-04-13T01:51:45.338Z,7.80
2023-04-13T01:54:33.749Z,7.80
2023-04-13T01:57:21.473Z,7.80
2023-04-13T02:00:31.091Z,7.90
2023-04-13T02:03:16.729Z,7.90
2023-04-13T02:06:05.203Z,7.90
2023-04-13T02:08:52.504Z,8.00
2023-04-13T02:11:41.082Z,8.00
2023-04-13T02:14:27.176Z,8.00
2023-04-13T02:17:12.697Z,8.00
2023-04-13T02:19:58.101Z,8.00
2023-04-13T02:22:44.099Z,8.00
2023-04-13T02:25:29.574Z,7.90
2023-04-13T02:28:17.840Z,7.90
2023-04-13T02:31:03.862Z,7.90
2023-04-13T02:33:49.987Z,7.80
2023-04-13T02:36:39.269Z,7.70
2023-04-13T02:39:25.364Z,7.70
2023-04-13T02:42:11.519Z,7.60
2023-04-13T02:44:56.946Z,7.50
2023-04-13T02:47:44.736Z,7.40
2023-04-13T02:50:33.296Z,7.40
2023-04-13T02:53:22.049Z,7.30
2023-04-13T02:56:09.675Z,7.20
2023-04-13T02:58:55.706Z,7.10
2023-04-13T03:01:45.627Z,6.90
2023-04-13T03:04:31.220Z,6.90
2023-04-13T03:07:17.210Z,6.80
2023-04-13T03:10:06.547Z,6.70
2023-04-13T03:12:52.370Z,6.70
2023-04-13T03:15:37.754Z,6.70
2023-04-13T03:18:23.719Z,6.60
2023-04-13T03:21:12.754Z,6.70
2023-04-13T03:23:58.683Z,6.80
2023-04-13T03:26:44.366Z,6.80
2023-04-13T03:29:32.133Z,6.90
2023-04-13T03:32:17.459Z,6.90
2023-04-13T03:35:03.382Z,7.00
2023-04-13T03:37:48.759Z,7.00
2023-04-13T03:40:36.816Z,7.10
2023-04-13T03:43:22.093Z,7.00
2023-04-13T03:46:08.060Z,7.00
2023-04-13T03:48:53.786Z,7.00
2023-04-13T03:51:39.393Z,7.00
2023-04-13T03:54:25.354Z,7.00
2023-04-13T03:57:10.818Z,7.10
2023-04-13T03:59:56.451Z,7.10
2023-04-13T04:02:42.465Z,7.10
2023-04-13T04:05:31.245Z,7.00
2023-04-13T04:08:16.925Z,7.00
2023-04-13T04:11:02.896Z,7.00
2023-04-13T04:13:48.902Z,7.00
2023-04-13T04:16:36.846Z,7.00
2023-04-13T04:19:22.669Z,6.90
2023-04-13T04:22:08.929Z,6.90
2023-04-13T04:24:54.122Z,7.00
2023-04-13T04:27:40.038Z,6.90
2023-04-13T04:30:34.009Z,6.90
2023-04-13T04:33:22.451Z,6.80
2023-04-13T04:36:14.012Z,6.80
2023-04-13T04:39:02.601Z,6.80
2023-04-13T04:42:02.943Z,6.90
2023-04-13T04:44:50.309Z,6.90
2023-04-13T04:47:42.057Z,6.90
2023-04-13T04:50:30.373Z,6.90
2023-04-13T04:53:18.308Z,6.90
2023-04-13T04:56:06.043Z,7.00
2023-04-13T04:58:51.647Z,6.90
2023-04-13T05:01:38.663Z,6.90
2023-04-13T05:04:26.882Z,7.00
2023-04-13T05:07:16.763Z,7.00
2023-04-13T05:10:05.538Z,7.00
2023-04-13T05:12:51.229Z,7.00
2023-04-13T05:15:36.940Z,7.10
2023-04-13T05:18:22.794Z,7.10
2023-04-13T05:21:08.059Z,7.20
2023-04-13T05:23:53.723Z,7.30
2023-04-13T05:26:39.094Z,7.30
2023-04-13T05:29:24.603Z,7.30
2023-04-13T05:32:10.419Z,7.40
2023-04-13T05:34:55.804Z,7.40
2023-04-13T05:37:41.167Z,7.50
2023-04-13T05:40:27.643Z,7.60
2023-04-13T05:43:13.265Z,7.60
2023-04-13T05:45:58.781Z,7.70
2023-04-13T05:48:44.387Z,7.70
2023-04-13T05:51:33.978Z,7.80
2023-04-13T05:54:19.467Z,7.80
2023-04-13T05:57:04.783Z,7.80
2023-04-13T05:59:53.454Z,7.90
2023-04-13T06:02:41.874Z,8.00
2023-04-13T06:05:33.083Z,8.10
2023-04-13T06:08:18.677Z,8.20
2023-04-13T06:11:04.590Z,8.20
2023-04-13T06:13:50.669Z,8.40
2023-04-13T06:16:36.098Z,8.60
2023-04-13T06:19:21.900Z,8.60
2023-04-13T06:22:08.101Z,8.80
2023-04-13T06:24:54.360Z,8.90
2023-04-13T06:27:40.116Z,8.80
2023-04-13T06:30:25.593Z,9.00
2023-04-13T06:33:11.248Z,9.00
2023-04-13T06:35:57.426Z,9.20
2023-04-13T06:38:42.802Z,9.30
2023-04-13T06:41:30.260Z,9.30
2023-04-13T06:44:23.155Z,9.30
2023-04-13T06:47:08.575Z,9.40
2023-04-13T06:49:56.567Z,9.50
2023-04-13T06:52:47.051Z,9.60
2023-04-13T06:55:32.981Z,9.60
2023-04-13T06:58:18.713Z,9.80
2023-04-13T07:01:04.925Z,9.50
2023-04-13T07:03:50.686Z,9.70
2023-04-13T07:06:36.400Z,9.90
2023-04-13T07:09:22.002Z,10.10
2023-04-13T07:12:07.822Z,10.30
2023-04-13T07:14:53.113Z,10.10
2023-04-13T07:17:38.378Z,10.10
2023-04-13T07:20:23.897Z,10.30
2023-04-13T07:23:09.839Z,10.50
2023-04-13T07:25:55.648Z,10.70
2023-04-13T07:28:43.108Z,10.80
2023-04-13T07:31:28.792Z,10.90
2023-04-13T07:34:14.276Z,10.90
2023-04-13T07:36:59.719Z,11.00
2023-04-13T07:39:45.258Z,10.90
2023-04-13T07:42:31.635Z,11.00
2023-04-13T07:45:20.039Z,11.10
2023-04-13T07:48:08.051Z,11.40
2023-04-13T07:50:53.769Z,11.30
2023-04-13T07:53:39.061Z,11.30
2023-04-13T07:56:24.965Z,11.20
2023-04-13T07:59:10.367Z,11.20
2023-04-13T08:01:55.993Z,11.50
2023-04-13T08:04:44.689Z,11.60
2023-04-13T08:07:30.082Z,11.90
2023-04-13T08:10:16.419Z,12.10
2023-04-13T08:13:02.147Z,12.20
2023-04-13T08:15:47.566Z,12.40
2023-04-13T08:18:32.890Z,11.90
2023-04-13T08:21:19.018Z,11.70
2023-04-13T08:24:05.349Z,11.50
2023-04-13T08:26:52.295Z,11.50
2023-04-13T08:29:37.757Z,11.60
2023-04-13T08:32:23.129Z,11.40
2023-04-13T08:35:10.432Z,11.80
2023-04-13T08:37:55.715Z,12.30
2023-04-13T08:40:41.299Z,12.50
2023-04-13T08:43:26.742Z,12.90
2023-04-13T08:46:16.163Z,12.50
2023-04-13T08:49:03.069Z,12.50
2023-04-13T08:51:49.600Z,13.00
2023-04-13T08:54:35.323Z,13.20
2023-04-13T08:57:21.530Z,13.20
2023-04-13T09:00:13.280Z,13.20
2023-04-13T09:03:06.036Z,13.50
2023-04-13T09:06:04.962Z,13.20
2023-04-13T09:08:52.008Z,13.50
2023-04-13T09:11:41.711Z,13.50
2023-04-13T09:14:29.548Z,13.80
2023-04-13T09:17:29.228Z,13.80
2023-04-13T09:20:24.781Z,13.30
2023-04-13T09:23:15.207Z,12.80
2023-04-13T09:26:09.943Z,12.40
2023-04-13T09:29:01.665Z,12.80
2023-04-13T09:31:48.406Z,13.00
2023-04-13T09:34:33.750Z,12.80
2023-04-13T09:37:19.632Z,13.20
2023-04-13T09:40:10.740Z,13.20
2023-04-13T09:43:09.580Z,13.60
2023-04-13T09:45:55.064Z,14.00
2023-04-13T09:48:41.581Z,14.00
2023-04-13T09:51:27.522Z,13.90
2023-04-13T09:54:12.988Z,13.30
2023-04-13T09:56:59.862Z,13.50
2023-04-13T09:59:45.635Z,13.00
2023-04-13T10:02:31.370Z,12.40
2023-04-13T10:05:19.587Z,12.70
2023-04-13T10:08:08.293Z,13.40
2023-04-13T10:10:56.738Z,14.00
2023-04-13T10:13:47.349Z,14.30
2023-04-13T10:16:58.005Z,14.60
2023-04-13T10:19:48.463Z,14.10
2023-04-13T10:22:34.665Z,14.40
2023-04-13T10:25:32.174Z,14.00
2023-04-13T10:28:19.545Z,13.50
2023-04-13T10:31:05.827Z,13.60
2023-04-13T10:33:51.627Z,13.50
2023-04-13T10:36:39.409Z,13.40
2023-04-13T10:39:26.079Z,13.50
2023-04-13T10:42:16.555Z,13.70
2023-04-13T10:45:16.696Z,14.10
2023-04-13T10:48:02.515Z,14.40
2023-04-13T10:51:00.995Z,14.50
2023-04-13T10:53:48.419Z,15.60
2023-04-13T10:56:34.502Z,16.10
2023-04-13T10:59:22.895Z,15.50
2023-04-13T11:02:15.907Z,15.50
2023-04-13T11:05:02.250Z,15.50
2023-04-13T11:07:55.104Z,16.00
2023-04-13T11:10:41.578Z,16.30
2023-04-13T11:13:28.973Z,16.20
2023-04-13T11:16:17.582Z,16.60
2023-04-13T11:19:07.688Z,16.60
2023-04-13T11:21:58.078Z,16.60
2023-04-13T11:24:43.976Z,16.60
2023-04-13T11:27:29.449Z,16.20
2023-04-13T11:30:15.527Z,16.70
2023-04-13T11:33:03.891Z,16.90
2023-04-13T11:35:50.372Z,16.50
2023-04-13T11:38:39.844Z,16.10
2023-04-13T11:41:28.812Z,16.40
2023-04-13T11:44:16.729Z,16.70
2023-04-13T11:47:06.538Z,16.70
2023-04-13T11:49:52.058Z,16.10
2023-04-13T11:52:39.344Z,16.50
2023-04-13T11:55:26.520Z,16.50
2023-04-13T11:58:16.315Z,17.10
2023-04-13T12:01:13.995Z,17.30
2023-04-13T12:04:15.901Z,18.10
2023-04-13T12:07:02.407Z,18.20
2023-04-13T12:15:43.309Z,17.70
2023-04-13T12:18:36.689Z,17.80
2023-04-13T12:21:23.709Z,18.00
2023-04-13T12:24:11.404Z,17.90
2023-04-13T12:27:17.816Z,17.30
2023-04-13T12:30:05.002Z,17.80
2023-04-13T12:32:58.432Z,18.90
2023-04-13T12:35:44.645Z,19.40
2023-04-13T12:38:32.901Z,19.50
2023-04-13T12:41:18.427Z,18.80
2023-04-13T12:44:03.939Z,19.10
2023-04-13T12:46:49.464Z,18.20
2023-04-13T12:49:35.056Z,17.70
2023-04-13T12:52:21.178Z,19.10
2023-04-13T12:55:09.909Z,18.90
2023-04-13T12:57:55.516Z,18.60
2023-04-13T13:00:43.362Z,19.30
2023-04-13T13:03:32.126Z,19.70
2023-04-13T13:06:17.966Z,18.70
2023-04-13T13:09:03.334Z,18.50
2023-04-13T13:11:49.561Z,17.90
2023-04-13T13:14:34.825Z,17.70
2023-04-13T13:17:23.423Z,17.20
2023-04-13T13:20:11.883Z,17.20
2023-04-13T13:22:58.005Z,17.50
2023-04-13T13:25:56.996Z,17.70
2023-04-13T13:28:51.903Z,18.10
2023-04-13T13:31:37.361Z,18.00
2023-04-13T13:34:23.112Z,20.00
2023-04-13T13:37:09.047Z,24.90
2023-04-13T13:39:55.238Z,29.20
2023-04-13T13:42:52.078Z,35.10
2023-04-13T13:45:37.880Z,39.70
2023-04-13T13:48:24.168Z,37.90
2023-04-13T13:51:09.818Z,30.80
2023-04-13T13:53:55.560Z,32.30
2023-04-13T13:56:43.057Z,34.80
2023-04-13T13:59:28.469Z,36.50
2023-04-13T14:02:14.332Z,38.00
2023-04-13T14:04:59.825Z,31.90
2023-04-13T14:07:45.855Z,30.50
2023-04-13T14:10:31.083Z,34.70
2023-04-13T14:13:17.100Z,36.20
2023-04-13T14:16:03.032Z,34.20
2023-04-13T14:18:49.177Z,35.90
2023-04-13T14:21:35.190Z,38.10
2023-04-13T14:24:25.269Z,40.40
2023-04-13T14:27:13.826Z,41.60
2023-04-13T14:30:01.984Z,36.90
2023-04-13T14:32:51.579Z,36.10
2023-04-13T14:35:39.699Z,39.60
2023-04-13T14:38:25.125Z,37.70
2023-04-13T14:41:11.134Z,34.20
2023-04-13T14:43:59.226Z,31.60
2023-04-13T14:46:45.521Z,29.00
2023-04-13T14:49:33.651Z,25.50
2023-04-13T14:52:21.792Z,23.30
2023-04-13T14:55:08.060Z,22.10
2023-04-13T14:57:54.005Z,21.90
2023-04-13T15:00:39.543Z,21.00
2023-04-13T15:03:25.897Z,20.80
2023-04-13T15:06:11.916Z,19.20
2023-04-13T15:08:58.036Z,19.20
2023-04-13T15:11:43.795Z,19.00
2023-04-13T15:14:30.125Z,18.30
2023-04-13T15:17:17.680Z,18.10
2023-04-13T15:20:07.293Z,18.10
2023-04-13T15:22:54.626Z,17.50
2023-04-13T15:25:41.854Z,17.30
2023-04-13T15:28:30.432Z,17.70
2023-04-13T15:31:16.435Z,18.10
2023-04-13T15:34:08.619Z,19.10
2023-04-13T15:36:55.692Z,18.90
2023-04-13T15:39:43.722Z,18.80
2023-04-13T15:42:32.106Z,18.50
2023-04-13T15:45:20.960Z,18.10
2023-04-13T15:48:07.781Z,17.50
2023-04-13T15:51:00.831Z,17.90
2023-04-13T15:53:46.419Z,18.50
2023-04-13T15:56:33.757Z,18.50
2023-04-13T15:59:19.026Z,18.10
2023-04-13T16:02:05.243Z,18.00
2023-04-13T16:04:54.065Z,17.60
2023-04-13T16:07:40.245Z,16.80
2023-04-13T16:10:25.882Z,16.30
2023-04-13T16:13:19.026Z,16.40
2023-04-13T16:16:05.112Z,16.10
2023-04-13T16:18:53.230Z,16.20
2023-04-13T16:21:38.917Z,16.30
2023-04-13T16:24:24.076Z,16.20
2023-04-13T16:27:10.227Z,16.10
2023-04-13T16:29:57.913Z,16.00
2023-04-13T16:32:45.286Z,15.80
2023-04-13T16:35:31.457Z,15.80
2023-04-13T16:38:16.932Z,15.60
2023-04-13T16:41:02.409Z,15.10
2023-04-13T16:43:48.352Z,15.00
2023-04-13T16:46:34.638Z,15.00
2023-04-13T16:49:22.356Z,15.10
2023-04-13T16:52:07.841Z,15.00
2023-04-13T16:54:53.290Z,15.50
2023-04-13T16:57:38.860Z,15.50
2023-04-13T17:00:24.887Z,15.60
2023-04-13T17:03:10.575Z,15.70
2023-04-13T17:05:56.746Z,15.30
2023-04-13T17:08:44.669Z,15.30
2023-04-13T17:11:30.482Z,15.10
2023-04-13T17:14:18.030Z,14.80
2023-04-13T17:17:03.363Z,14.80
2023-04-13T17:19:51.332Z,14.50
2023-04-13T17:22:37.245Z,14.50
2023-04-13T17:25:25.694Z,14.60
2023-04-13T17:28:11.136Z,14.50
2023-04-13T17:30:59.054Z,14.20
2023-04-13T17:33:45.094Z,14.10
2023-04-13T17:36:31.399Z,13.80
2023-04-13T17:39:19.339Z,13.50
2023-04-13T17:42:05.387Z,13.20
2023-04-13T17:44:50.934Z,12.90
2023-04-13T17:47:37.115Z,12.60
2023-04-13T17:50:22.637Z,12.40
2023-04-13T17:53:07.961Z,12.10
2023-04-13T17:55:56.402Z,11.90
2023-04-13T17:58:41.716Z,11.70
2023-04-13T18:01:27.268Z,11.40
2023-04-13T18:04:14.692Z,11.20
2023-04-13T18:07:02.612Z,10.90
2023-04-13T18:09:47.910Z,10.70
2023-04-13T18:12:33.785Z,10.40
2023-04-13T18:15:19.038Z,10.30
2023-04-13T18:18:07.248Z,10.20
2023-04-13T18:20:53.181Z,10.20
2023-04-13T18:23:43.522Z,10.00
2023-04-13T18:26:28.820Z,9.90
2023-04-13T18:29:17.010Z,9.80
2023-04-13T18:32:02.508Z,9.60
2023-04-13T18:34:50.222Z,9.50
2023-04-13T18:37:38.252Z,9.40
2023-04-13T18:40:28.209Z,9.40
2023-04-13T18:43:13.966Z,9.30
2023-04-13T18:45:59.334Z,9.20
2023-04-13T18:48:44.859Z,9.10
2023-04-13T18:51:31.311Z,9.10
2023-04-13T18:54:17.534Z,9.00
2023-04-13T18:57:02.840Z,9.10
2023-04-13T18:59:48.590Z,9.00
2023-04-13T19:02:34.521Z,8.90
2023-04-13T19:05:20.325Z,8.80
2023-04-13T19:08:10.222Z,8.80
2023-04-13T19:10:56.105Z,8.80
2023-04-13T19:13:41.638Z,8.80
2023-04-13T19:16:28.964Z,8.80
2023-04-13T19:19:15.240Z,8.80
2023-04-13T19:22:01.116Z,8.80
2023-04-13T19:24:50.284Z,8.80
2023-04-13T19:27:35.731Z,8.70
2023-04-13T19:30:21.858Z,8.80
2023-04-13T19:33:10.012Z,8.70
2023-04-13T19:35:58.783Z,8.60
2023-04-13T19:38:47.040Z,8.60
2023-04-13T19:41:37.321Z,8.60
2023-04-13T19:44:22.805Z,8.50
2023-04-13T19:47:08.328Z,8.50
2023-04-13T19:49:54.061Z,8.50
2023-04-13T19:52:42.848Z,8.50
2023-04-13T19:55:28.484Z,8.40
2023-04-13T19:58:14.048Z,8.40
2023-04-13T20:01:00.325Z,8.40
2023-04-13T20:03:46.743Z,8.40
2023-04-13T20:06:36.001Z,8.40
2023-04-13T20:09:26.213Z,8.60
2023-04-13T20:12:12.484Z,8.50
2023-04-13T20:15:01.100Z,8.40
2023-04-13T20:17:47.899Z,8.40
2023-04-13T20:20:37.464Z,8.30
2023-04-13T20:23:27.327Z,8.30
2023-04-13T20:26:13.212Z,8.20
2023-04-13T20:29:03.280Z,8.20
2023-04-13T20:31:48.922Z,8.10
2023-04-13T20:34:37.787Z,8.10
2023-04-13T20:37:23.578Z,8.10
2023-04-13T20:40:12.297Z,8.00
2023-04-13T20:42:58.581Z,8.00
2023-04-13T20:45:52.886Z,8.10
2023-04-13T20:51:31.316Z,8.20
2023-04-13T20:54:17.311Z,8.10
2023-04-13T20:57:03.392Z,8.50
2023-04-13T20:59:50.287Z,8.90
2023-04-13T21:02:35.981Z,9.10
2023-04-13T21:05:22.380Z,9.20
2023-04-13T21:08:07.900Z,9.40
2023-04-13T21:10:53.440Z,9.50
2023-04-13T21:13:41.324Z,9.40
2023-04-13T21:16:29.556Z,9.40
2023-04-13T21:19:14.928Z,9.50
2023-04-13T21:22:00.764Z,9.50
2023-04-13T21:24:46.788Z,9.30
2023-04-13T21:27:32.552Z,9.30
2023-04-13T21:30:21.146Z,9.40
2023-04-13T21:33:06.547Z,9.40
2023-04-13T21:35:52.375Z,9.40
2023-04-13T21:38:42.087Z,9.00
2023-04-13T21:41:27.748Z,8.90
2023-04-13T21:44:26.556Z,9.00
2023-04-13T21:47:14.285Z,8.80
2023-04-13T21:49:59.570Z,8.80
2023-04-13T21:52:45.136Z,8.70
2023-04-13T21:55:33.005Z,8.50
2023-04-13T21:58:18.449Z,8.30
2023-04-13T22:01:04.595Z,8.40
2023-04-13T22:03:51.694Z,8.20
2023-04-13T22:06:39.654Z,8.30
2023-04-13T22:09:25.405Z,8.20
2023-04-13T22:12:14.286Z,8.20
2023-04-13T22:15:02.431Z,8.10
2023-04-13T22:17:50.255Z,7.90
2023-04-13T22:20:35.961Z,7.80
2023-04-13T22:23:21.605Z,7.80
2023-04-13T22:26:06.976Z,7.80
2023-04-13T22:28:52.447Z,7.80
2023-04-13T22:31:38.458Z,7.90
2023-04-13T22:34:27.164Z,7.80
2023-04-13T22:37:15.618Z,7.70
2023-04-13T22:40:02.990Z,7.70
2023-04-13T22:42:51.378Z,7.80
2023-04-13T22:45:36.965Z,7.80
2023-04-13T22:48:26.085Z,7.80
2023-04-13T22:51:11.642Z,7.80
2023-04-13T22:53:57.176Z,7.70
2023-04-13T22:56:42.526Z,7.80
2023-04-13T22:59:31.192Z,7.80
2023-04-13T23:02:16.501Z,7.90
2023-04-13T23:05:04.345Z,8.00
2023-04-13T23:07:51.182Z,8.00
2023-04-13T23:10:36.626Z,8.20
2023-04-13T23:13:21.991Z,8.20
2023-04-13T23:16:09.970Z,8.20
2023-04-13T23:18:59.277Z,8.20
2023-04-13T23:21:45.841Z,8.20
2023-04-13T23:24:32.196Z,8.30
2023-04-13T23:27:18.480Z,8.30
2023-04-13T23:30:04.518Z,8.40
2023-04-13T23:32:50.157Z,8.40
2023-04-13T23:35:38.236Z,8.40
2023-04-13T23:38:23.798Z,8.50
2023-04-13T23:41:09.616Z,8.50
2023-04-13T23:43:56.953Z,8.50
2023-04-13T23:46:42.168Z,8.50
2023-04-13T23:49:29.299Z,8.50
2023-04-13T23:52:17.582Z,8.60
2023-04-13T23:55:03.570Z,8.60
2023-04-13T23:57:48.923Z,8.80
